sensor_id;sensor_type;location;lat;lon;timestamp;pressure;altitude;pressure_sealevel;temperature;humidity
31162;BME280;17796;49.296;-117.656;2022-10-22T00:04:22;95000;;;9.63419;56.57774
31162;BME280;17796;49.296;-117.656;2022-10-22T00:19:26;95000;;;9.05934;57.91188
31162;BME280;17796;49.296;-117.656;2022-10-22T00:34:31;95000;;;8.79257;59.04352
31162;BME280;17796;49.296;-117.656;2022-10-22T00:49:35;95000;;;9.20512;58.28311
31162;BME280;17796;49.296;-117.656;2022-10-22T01:04:39;95000;;;9.07046;59.34264
31162;BME280;17796;49.296;-117.656;2022-10-22T01:19:47;95000;;;8.73159;61.61742
31162;BME280;17796;49.296;-117.656;2022-10-22T01:34:59;95000;;;8.12372;65.20654
31162;BME280;17796;49.296;-117.656;2022-10-22T01:50:11;95000;;;8.71094;62.14261
31162;BME280;17796;49.296;-117.656;2022-10-22T02:05:29;95000;;;8.77827;62.96367
31162;BME280;17796;49.296;-117.656;2022-10-22T02:20:38;95000;;;8.27838;65.35018
31162;BME280;17796;49.296;-117.656;2022-10-22T02:35:43;95000;;;8.15992;63.2698
31162;BME280;17796;49.296;-117.656;2022-10-22T02:50:48;94900;;;6.69774;69.64706
31162;BME280;17796;49.296;-117.656;2022-10-22T03:05:51;94900;;;7.43867;66.44107
31162;BME280;17796;49.296;-117.656;2022-10-22T03:21:05;94900;;;7.07059;67.41963
31162;BME280;17796;49.296;-117.656;2022-10-22T03:36:14;94900;;;7.1827;66.62501
31162;BME280;17796;49.296;-117.656;2022-10-22T03:51:18;94900;;;7.25955;65.1252
31162;BME280;17796;49.296;-117.656;2022-10-22T04:06:22;94900;;;7.04518;65.1509
31162;BME280;17796;49.296;-117.656;2022-10-22T04:21:26;94900;;;6.16928;68.40888
31162;BME280;17796;49.296;-117.656;2022-10-22T04:36:29;94900;;;7.41168;62.72463
31162;BME280;17796;49.296;-117.656;2022-10-22T04:51:33;94900;;;7.14808;64.87315
31162;BME280;17796;49.296;-117.656;2022-10-22T05:06:37;94900;;;7.03534;65.37316
31162;BME280;17796;49.296;-117.656;2022-10-22T05:21:40;94900;;;7.03216;64.09686
31162;BME280;17796;49.296;-117.656;2022-10-22T05:36:44;94900;;;6.5399;65.9319
31162;BME280;17796;49.296;-117.656;2022-10-22T05:51:49;94800;;;6.9118;64.11753
31162;BME280;17796;49.296;-117.656;2022-10-22T06:06:52;94800;;;7.18111;62.99606
31162;BME280;17796;49.296;-117.656;2022-10-22T06:21:57;94900;;;6.62089;65.83137
31162;BME280;17796;49.296;-117.656;2022-10-22T06:37:00;94800;;;6.69425;65.69133
31162;BME280;17796;49.296;-117.656;2022-10-22T06:52:04;94800;;;6.10195;67.22641
31162;BME280;17796;49.296;-117.656;2022-10-22T07:07:08;94800;;;6.21406;67.92307
31162;BME280;17796;49.296;-117.656;2022-10-22T07:22:11;94800;;;6.67932;64.58806
31162;BME280;17796;49.296;-117.656;2022-10-22T07:37:15;94800;;;5.90632;66.77998
31162;BME280;17796;49.296;-117.656;2022-10-22T07:52:19;94800;;;5.52046;67.58107
31162;BME280;17796;49.296;-117.656;2022-10-22T08:07:23;94800;;;5.54301;65.96204
31162;BME280;17796;49.296;-117.656;2022-10-22T08:22:28;94800;;;4.99677;66.72484
31162;BME280;17796;49.296;-117.656;2022-10-22T08:37:32;94800;;;5.26004;64.86726
31162;BME280;17796;49.296;-117.656;2022-10-22T08:52:36;94800;;;4.92785;65.94979
31162;BME280;17796;49.296;-117.656;2022-10-22T09:07:45;94800;;;4.48261;66.9838
31162;BME280;17796;49.296;-117.656;2022-10-22T09:22:51;94800;;;4.36129;67.88862
31162;BME280;17796;49.296;-117.656;2022-10-22T09:38:05;94800;;;4.65696;66.88485
31162;BME280;17796;49.296;-117.656;2022-10-22T09:53:12;94800;;;4.5801;67.52747
31162;BME280;17796;49.296;-117.656;2022-10-22T10:08:20;94800;;;5.07108;65.0274
31162;BME280;17796;49.296;-117.656;2022-10-22T10:23:26;94800;;;4.94119;65.32973
31162;BME280;17796;49.296;-117.656;2022-10-22T10:38:41;94700;;;5.11364;64.65285
31162;BME280;17796;49.296;-117.656;2022-10-22T10:54:02;94700;;;4.72111;67.06089
31162;BME280;17796;49.296;-117.656;2022-10-22T11:09:26;94700;;;4.53151;66.41127
31162;BME280;17796;49.296;-117.656;2022-10-22T11:24:37;94700;;;4.70555;66.40621
31162;BME280;17796;49.296;-117.656;2022-10-22T11:39:46;94700;;;4.74397;66.64698
31162;BME280;17796;49.296;-117.656;2022-10-22T11:54:54;94800;;;4.90403;65.75977
31162;BME280;17796;49.296;-117.656;2022-10-22T12:10:04;94800;;;4.82813;67.77168
31162;BME280;17796;49.296;-117.656;2022-10-22T12:25:20;94800;;;4.79002;67.94073
31162;BME280;17796;49.296;-117.656;2022-10-22T12:40:26;94800;;;4.48832;68.32363
31162;BME280;17796;49.296;-117.656;2022-10-22T12:55:31;94800;;;4.78272;67.04845
31162;BME280;17796;49.296;-117.656;2022-10-22T13:10:37;94800;;;5.01138;67.20804
31162;BME280;17796;49.296;-117.656;2022-10-22T13:25:42;94800;;;4.74715;68.0208
31162;BME280;17796;49.296;-117.656;2022-10-22T13:40:57;94800;;;4.73;68.17464
31162;BME280;17796;49.296;-117.656;2022-10-22T13:56:00;94800;;;4.76112;68.50353
31162;BME280;17796;49.296;-117.656;2022-10-22T14:11:04;94800;;;5.02598;65.68449
31162;BME280;17796;49.296;-117.656;2022-10-22T14:26:13;94800;;;4.6903;66.84833
31162;BME280;17796;49.296;-117.656;2022-10-22T14:41:24;94800;;;3.96241;68.83896
31162;BME280;17796;49.296;-117.656;2022-10-22T14:56:29;94800;;;3.83126;68.09463
31162;BME280;17796;49.296;-117.656;2022-10-22T15:11:33;94800;;;4.15995;65.25768
31162;BME280;17796;49.296;-117.656;2022-10-22T15:26:37;94900;;;3.79823;66.83229
31162;BME280;17796;49.296;-117.656;2022-10-22T15:41:40;94900;;;3.92716;66.16643
31162;BME280;17796;49.296;-117.656;2022-10-22T15:56:46;94900;;;3.80839;67.13698
31162;BME280;17796;49.296;-117.656;2022-10-22T16:11:50;94900;;;3.81157;67.72301
31162;BME280;17796;49.296;-117.656;2022-10-22T16:26:54;94900;;;4.83131;65.81048
31162;BME280;17796;49.296;-117.656;2022-10-22T16:41:58;94900;;;3.64198;72.7948
31162;BME280;17796;49.296;-117.656;2022-10-22T16:57:02;94900;;;5.5014;63.705
31162;BME280;17796;49.296;-117.656;2022-10-22T17:12:06;94900;;;5.65067;66.31882
31162;BME280;17796;49.296;-117.656;2022-10-22T17:27:11;94900;;;6.48655;63.3349
31162;BME280;17796;49.296;-117.656;2022-10-22T17:42:14;94900;;;6.60437;65.24592
31162;BME280;17796;49.296;-117.656;2022-10-22T17:57:18;94900;;;6.91434;63.69975
31162;BME280;17796;49.296;-117.656;2022-10-22T18:12:21;94900;;;8.29522;56.74633
31162;BME280;17796;49.296;-117.656;2022-10-22T18:27:25;94900;;;6.2852;58.08226
31162;BME280;17796;49.296;-117.656;2022-10-22T18:42:29;94900;;;8.92024;55.07238
31162;BME280;17796;49.296;-117.656;2022-10-22T18:57:33;94900;;;7.63939;50.53201
31162;BME280;17796;49.296;-117.656;2022-10-22T19:12:36;94900;;;9.46079;46.36539
31162;BME280;17796;49.296;-117.656;2022-10-22T19:27:40;94900;;;8.80051;47.24225
31162;BME280;17796;49.296;-117.656;2022-10-22T19:42:44;94900;;;10.40119;42.34242
31162;BME280;17796;49.296;-117.656;2022-10-22T19:57:48;94900;;;10.07502;39.8646
31162;BME280;17796;49.296;-117.656;2022-10-22T20:12:53;94900;;;9.57385;40.52943
31162;BME280;17796;49.296;-117.656;2022-10-22T20:27:56;94900;;;9.02663;40.24502
31162;BME280;17796;49.296;-117.656;2022-10-22T20:43:00;94900;;;8.40478;45.67737
31162;BME280;17796;49.296;-117.656;2022-10-22T20:58:04;94900;;;8.05543;47.23272
31162;BME280;17796;49.296;-117.656;2022-10-22T21:13:08;94900;;;8.85291;45.24024
31162;BME280;17796;49.296;-117.656;2022-10-22T21:28:11;94900;;;8.18755;47.44322
31162;BME280;17796;49.296;-117.656;2022-10-22T21:43:15;94900;;;7.48758;48.42637
31162;BME280;17796;49.296;-117.656;2022-10-22T21:58:19;95000;;;8.39208;47.77336
31162;BME280;17796;49.296;-117.656;2022-10-22T22:13:22;95000;;;8.09132;48.60326
31162;BME280;17796;49.296;-117.656;2022-10-22T22:28:28;95000;;;7.30878;50.29305
31162;BME280;17796;49.296;-117.656;2022-10-22T22:43:33;95000;;;7.51235;50.2707
31162;BME280;17796;49.296;-117.656;2022-10-22T22:58:39;95100;;;7.95253;48.51021
31162;BME280;17796;49.296;-117.656;2022-10-22T23:13:43;95100;;;7.54951;51.6386
31162;BME280;17796;49.296;-117.656;2022-10-22T23:28:49;95100;;;6.88035;56.89836
31162;BME280;17796;49.296;-117.656;2022-10-22T23:43:52;95200;;;7.04264;57.19581
31162;BME280;17796;49.296;-117.656;2022-10-22T23:58:56;95200;;;6.73204;60.39533
